Time;durP1;ratioP1;P1;durP2;ratioP2;P2;SDS_P1;SDS_P2;PMS_P1;PMS_P2;Temp;Humidity;BMP_temperature;BMP_pressure;BME280_temperature;BME280_humidity;BME280_pressure;Samples;Min_cycle;Max_cycle;Signal;HPM_P1;HPM_P2
2021/06/15 00:00:52;;;;;;;22.13;13.18;;;20.60;99.90;;;;;;5052808;28;20244;-79
2021/06/15 00:03:17;;;;;;;14.15;12.55;;;20.60;99.90;;;;;;5051694;28;20186;-79
2021/06/15 00:05:43;;;;;;;20.13;13.52;;;20.60;99.90;;;;;;5051388;28;20250;-79
2021/06/15 00:08:09;;;;;;;20.75;12.98;;;20.80;99.90;;;;;;5051808;28;20225;-79
2021/06/15 00:10:35;;;;;;;15.15;12.80;;;20.60;99.90;;;;;;5052702;28;20504;-79
2021/06/15 00:13:00;;;;;;;17.75;13.02;;;20.40;99.90;;;;;;5051186;28;20167;-79
2021/06/15 00:15:26;;;;;;;16.77;13.95;;;20.50;99.90;;;;;;5052567;28;20237;-79
2021/06/15 00:17:52;;;;;;;24.90;15.43;;;20.40;99.90;;;;;;5050400;28;20262;-79
2021/06/15 00:20:19;;;;;;;20.48;14.73;;;20.30;99.90;;;;;;5049254;28;20675;-79
2021/06/15 00:22:45;;;;;;;23.58;14.25;;;20.30;99.90;;;;;;5050825;28;20159;-80
2021/06/15 00:25:13;;;;;;;16.98;13.80;;;20.30;99.90;;;;;;5049455;28;20586;-80
2021/06/15 00:27:38;;;;;;;20.42;13.25;;;20.30;99.90;;;;;;5050606;28;20175;-79
2021/06/15 00:30:05;;;;;;;19.58;13.85;;;20.20;99.90;;;;;;5050885;28;20168;-80
2021/06/15 00:32:31;;;;;;;16.83;13.18;;;20.40;99.90;;;;;;5051391;28;20282;-80
2021/06/15 00:34:56;;;;;;;23.48;12.65;;;20.60;99.90;;;;;;5052402;28;20297;-80
2021/06/15 00:37:22;;;;;;;22.85;12.93;;;20.60;99.90;;;;;;5052250;28;20174;-80
2021/06/15 00:39:48;;;;;;;18.02;13.98;;;20.60;99.90;;;;;;5052361;28;20228;-80
2021/06/15 00:42:15;;;;;;;20.63;13.73;;;20.60;99.90;;;;;;5052130;28;20191;-80
2021/06/15 00:44:41;;;;;;;18.42;13.10;;;20.50;99.90;;;;;;5052380;28;20190;-80
2021/06/15 00:47:07;;;;;;;14.90;12.75;;;20.40;99.90;;;;;;5051018;28;20179;-80
2021/06/15 00:49:34;;;;;;;16.98;12.55;;;20.40;99.90;;;;;;5052403;28;20167;-80
2021/06/15 00:52:00;;;;;;;18.75;12.15;;;20.60;99.90;;;;;;5052013;28;20249;-79
2021/06/15 00:54:26;;;;;;;23.95;12.68;;;20.70;99.90;;;;;;5052169;28;20207;-80
2021/06/15 00:56:53;;;;;;;17.23;13.15;;;20.80;99.90;;;;;;5051871;28;20501;-80
2021/06/15 00:59:18;;;;;;;19.27;12.40;;;20.70;99.90;;;;;;5052223;28;20170;-80
2021/06/15 01:01:44;;;;;;;16.23;12.55;;;20.80;99.90;;;;;;5051987;28;20179;-80
2021/06/15 01:04:11;;;;;;;14.50;12.25;;;20.70;99.90;;;;;;5050894;28;20174;-80
2021/06/15 01:06:54;;;;;;;15.65;11.88;;;20.70;99.90;;;;;;5052283;28;20202;-80
2021/06/15 01:09:26;;;;;;;14.48;12.88;;;20.50;99.90;;;;;;5052085;28;20170;-80
2021/06/15 01:12:23;;;;;;;17.02;12.20;;;20.70;99.90;;;;;;5052198;28;20226;-79
2021/06/15 01:15:10;;;;;;;14.63;11.80;;;20.60;99.90;;;;;;5051861;28;20211;-80
2021/06/15 01:17:56;;;;;;;13.13;11.70;;;20.60;99.90;;;;;;5050461;28;20574;-80
2021/06/15 01:20:34;;;;;;;19.00;14.10;;;20.40;99.90;;;;;;5051787;28;20566;-80
2021/06/15 01:23:07;;;;;;;16.08;12.35;;;20.30;99.90;;;;;;5051024;28;20177;-80
2021/06/15 01:25:32;;;;;;;23.35;12.43;;;20.30;99.90;;;;;;5051930;28;20258;-79
2021/06/15 01:28:03;;;;;;;19.20;12.60;;;20.30;99.90;;;;;;5051852;28;20282;-80
2021/06/15 01:30:57;;;;;;;21.50;13.10;;;20.20;99.90;;;;;;5055873;28;20175;-80
2021/06/15 01:33:23;;;;;;;26.98;14.77;;;20.10;99.90;;;;;;5055966;28;20174;-79
2021/06/15 01:35:51;;;;;;;19.27;14.10;;;20.10;99.90;;;;;;5054042;28;20272;-79
2021/06/15 01:38:18;;;;;;;26.13;14.82;;;20.20;99.90;;;;;;5055585;28;20715;-80
2021/06/15 01:40:51;;;;;;;23.75;15.88;;;20.30;99.90;;;;;;5054421;28;20203;-79
2021/06/15 01:43:31;;;;;;;30.80;16.13;;;20.50;99.90;;;;;;5055852;28;20175;-79
2021/06/15 01:46:02;;;;;;;40.55;17.83;;;20.20;99.90;;;;;;5055597;28;20171;-79
2021/06/15 01:49:02;;;;;;;22.60;16.55;;;20.00;99.90;;;;;;5055879;28;20167;-80
2021/06/15 01:51:30;;;;;;;23.55;17.92;;;19.70;99.90;;;;;;5052565;28;20197;-79
2021/06/15 01:54:08;;;;;;;28.80;19.38;;;19.40;99.90;;;;;;5055494;28;20202;-80
2021/06/15 01:56:37;;;;;;;32.95;21.10;;;19.30;99.90;;;;;;5054059;28;20564;-79
2021/06/15 01:59:05;;;;;;;33.92;23.30;;;19.60;99.90;;;;;;5055399;28;20198;-79
2021/06/15 02:01:34;;;;;;;40.60;22.90;;;19.60;99.90;;;;;;5055231;28;20206;-79
2021/06/15 02:04:02;;;;;;;39.78;23.15;;;19.40;99.90;;;;;;5055406;28;20163;-79
2021/06/15 02:06:29;;;;;;;37.30;22.63;;;19.40;99.90;;;;;;5055138;28;20225;-79
2021/06/15 02:08:57;;;;;;;35.70;24.10;;;19.40;99.90;;;;;;5055152;28;20181;-79
2021/06/15 02:11:27;;;;;;;44.42;25.52;;;19.50;99.90;;;;;;5054983;28;20190;-79
2021/06/15 02:13:52;;;;;;;39.78;23.80;;;19.60;99.90;;;;;;5055053;28;20195;-79
2021/06/15 02:16:31;;;;;;;37.03;22.38;;;19.60;99.90;;;;;;5054811;28;20178;-80
2021/06/15 02:18:58;;;;;;;37.65;23.52;;;19.50;99.90;;;;;;5054534;28;20228;-79
2021/06/15 02:21:26;;;;;;;33.45;22.40;;;19.40;99.90;;;;;;5055048;28;20183;-79
2021/06/15 02:23:57;;;;;;;36.45;24.20;;;19.40;99.90;;;;;;5055038;28;20171;-79
2021/06/15 02:26:25;;;;;;;34.00;23.13;;;19.40;99.90;;;;;;5055018;28;20170;-79
2021/06/15 02:28:51;;;;;;;32.45;22.20;;;19.40;99.90;;;;;;5054798;28;20179;-80
2021/06/15 02:31:22;;;;;;;40.25;21.92;;;19.40;99.90;;;;;;5055997;28;20191;-79
2021/06/15 02:33:52;;;;;;;42.40;24.25;;;19.40;99.90;;;;;;5060622;28;20646;-80
2021/06/15 02:36:31;;;;;;;33.08;24.42;;;19.60;99.90;;;;;;5064288;28;20174;-79
2021/06/15 02:39:19;;;;;;;39.17;24.13;;;19.50;99.90;;;;;;5066719;28;20198;-79
2021/06/15 02:41:45;;;;;;;35.63;24.27;;;19.50;99.90;;;;;;5054165;28;20195;-79
2021/06/15 02:44:18;;;;;;;38.97;25.77;;;19.30;99.90;;;;;;5055265;28;20623;-79
2021/06/15 02:46:46;;;;;;;35.50;24.13;;;19.40;99.90;;;;;;5055551;28;20190;-79
2021/06/15 02:49:22;;;;;;;36.10;23.08;;;19.40;99.90;;;;;;5054896;28;20170;-79
2021/06/15 02:51:58;;;;;;;37.20;24.98;;;19.20;99.90;;;;;;5055009;28;20190;-79
2021/06/15 02:54:33;;;;;;;39.13;24.40;;;19.40;99.90;;;;;;5054504;28;20208;-79
2021/06/15 02:57:02;;;;;;;40.88;25.70;;;19.40;99.90;;;;;;5054383;28;20626;-79
2021/06/15 02:59:27;;;;;;;35.40;23.85;;;19.50;99.90;;;;;;5052803;28;20217;-79
2021/06/15 03:01:54;;;;;;;35.97;24.83;;;19.30;99.90;;;;;;5053761;28;20191;-79
2021/06/15 03:04:20;;;;;;;39.45;24.92;;;19.20;99.90;;;;;;5053159;28;20186;-79
2021/06/15 03:06:46;;;;;;;39.55;24.65;;;19.30;99.90;;;;;;5054226;28;20681;-79
2021/06/15 03:09:13;;;;;;;45.40;26.25;;;19.50;99.90;;;;;;5054033;28;20159;-79
2021/06/15 03:11:47;;;;;;;41.42;26.13;;;19.50;99.90;;;;;;5054023;28;20191;-79
2021/06/15 03:14:20;;;;;;;49.40;26.70;;;19.30;99.90;;;;;;5053833;28;20195;-79
2021/06/15 03:16:47;;;;;;;35.72;24.83;;;19.40;99.90;;;;;;5052207;28;20542;-79
2021/06/15 03:19:12;;;;;;;38.70;25.42;;;19.30;99.90;;;;;;5053935;28;20170;-79
2021/06/15 03:21:49;;;;;;;35.67;24.85;;;19.20;99.90;;;;;;5054028;28;20182;-80
2021/06/15 03:24:22;;;;;;;35.75;26.05;;;19.10;99.90;;;;;;5054334;28;20241;-79
2021/06/15 03:27:09;;;;;;;39.13;25.15;;;19.00;99.90;;;;;;5053059;28;20168;-80
2021/06/15 03:29:40;;;;;;;46.05;27.33;;;18.90;99.90;;;;;;5053854;28;20170;-79
2021/06/15 03:32:12;;;;;;;41.72;26.40;;;19.00;99.90;;;;;;5054208;28;20535;-80
2021/06/15 03:34:51;;;;;;;42.05;26.27;;;19.20;99.90;;;;;;5054290;28;20214;-81
2021/06/15 03:37:28;;;;;;;40.63;26.00;;;19.20;99.90;;;;;;5053833;28;20716;-81
2021/06/15 03:39:57;;;;;;;33.25;25.40;;;19.30;99.90;;;;;;5052560;28;20170;-81
2021/06/15 03:42:27;;;;;;;37.75;25.33;;;18.90;99.90;;;;;;5053493;28;20258;-81
2021/06/15 03:45:00;;;;;;;45.67;25.17;;;18.90;99.90;;;;;;5053665;28;20173;-80
2021/06/15 03:47:27;;;;;;;33.15;24.15;;;18.90;99.90;;;;;;5053526;28;20623;-80
2021/06/15 03:49:54;;;;;;;33.28;24.50;;;18.90;99.90;;;;;;5053795;28;20163;-81
2021/06/15 03:52:23;;;;;;;40.38;25.13;;;18.60;99.90;;;;;;5053584;28;20623;-81
2021/06/15 03:54:50;;;;;;;43.45;24.80;;;18.60;99.90;;;;;;5053124;28;20213;-81
2021/06/15 03:57:19;;;;;;;39.50;24.75;;;18.50;99.90;;;;;;5053255;28;20160;-80
2021/06/15 03:59:48;;;;;;;33.08;24.17;;;18.60;99.90;;;;;;5051728;28;20211;-80
2021/06/15 04:02:14;;;;;;;36.30;24.85;;;18.70;99.90;;;;;;5051621;28;20187;-80
2021/06/15 04:04:42;;;;;;;40.63;23.40;;;18.80;99.90;;;;;;5052014;28;20381;-79
2021/06/15 04:07:15;;;;;;;34.42;21.80;;;18.70;99.90;;;;;;5053389;28;20240;-79
2021/06/15 04:09:42;;;;;;;35.05;23.15;;;18.80;99.90;;;;;;5052728;28;20241;-80
2021/06/15 04:12:09;;;;;;;39.55;23.27;;;18.90;99.90;;;;;;5052750;28;20272;-82
2021/06/15 04:14:36;;;;;;;33.42;21.13;;;19.10;99.90;;;;;;5052787;28;20195;-81
2021/06/15 04:17:06;;;;;;;31.42;21.75;;;19.20;99.90;;;;;;5052677;28;20184;-81
2021/06/15 04:19:37;;;;;;;33.92;22.33;;;19.20;99.90;;;;;;5051398;28;20175;-78
2021/06/15 04:22:05;;;;;;;32.03;19.80;;;19.50;99.90;;;;;;5051399;28;20191;-80
2021/06/15 04:24:32;;;;;;;32.75;20.77;;;19.50;99.90;;;;;;5051435;28;20696;-79
2021/06/15 04:26:59;;;;;;;28.13;20.75;;;19.50;99.90;;;;;;5052679;28;20174;-81
2021/06/15 04:29:26;;;;;;;27.55;19.83;;;19.70;99.90;;;;;;5052503;28;20171;-81
2021/06/15 04:31:58;;;;;;;29.10;19.83;;;19.50;99.90;;;;;;5050918;28;20187;-79
2021/06/15 04:34:27;;;;;;;25.38;20.23;;;19.20;99.90;;;;;;5050939;28;20206;-79
2021/06/15 04:37:00;;;;;;;29.17;18.83;;;19.40;99.90;;;;;;5052466;28;20635;-79
2021/06/15 04:39:31;;;;;;;29.70;20.63;;;19.40;99.90;;;;;;5052573;28;20175;-80
2021/06/15 04:42:03;;;;;;;31.02;19.17;;;19.60;99.90;;;;;;5052270;28;20329;-80
2021/06/15 04:44:37;;;;;;;35.40;21.00;;;19.80;99.90;;;;;;5052424;28;20167;-80
2021/06/15 04:47:24;;;;;;;46.85;21.23;;;19.80;99.90;;;;;;5050948;28;20570;-80
2021/06/15 04:49:55;;;;;;;32.60;21.60;;;19.60;99.90;;;;;;5052282;28;20195;-80
2021/06/15 04:52:23;;;;;;;36.45;20.48;;;19.60;99.90;;;;;;5052396;28;20201;-80
2021/06/15 04:54:50;;;;;;;29.88;20.23;;;19.50;99.90;;;;;;5052219;28;20218;-80
2021/06/15 04:57:28;;;;;;;31.58;20.00;;;19.50;99.90;;;;;;5052228;28;20654;-80
2021/06/15 04:59:59;;;;;;;30.98;19.75;;;19.50;99.90;;;;;;5052279;28;20189;-80
2021/06/15 05:02:26;;;;;;;36.35;19.42;;;19.50;99.90;;;;;;5052394;28;20166;-80
2021/06/15 05:04:53;;;;;;;26.13;18.58;;;19.60;99.90;;;;;;5055560;28;20163;-80
2021/06/15 05:07:20;;;;;;;23.55;16.73;;;19.60;99.90;;;;;;5055912;28;20948;-80
2021/06/15 05:09:58;;;;;;;21.40;17.27;;;19.70;99.90;;;;;;5056016;28;20530;-80
2021/06/15 05:12:25;;;;;;;26.73;17.73;;;19.60;99.90;;;;;;5055667;28;20163;-80
2021/06/15 05:14:51;;;;;;;29.15;16.17;;;19.60;99.90;;;;;;5056101;28;20633;-80
2021/06/15 05:17:20;;;;;;;25.63;15.30;;;19.60;99.90;;;;;;5054458;28;20167;-80
2021/06/15 05:19:46;;;;;;;22.05;15.57;;;19.80;99.90;;;;;;5055900;28;20169;-81
2021/06/15 05:22:27;;;;;;;23.08;15.88;;;19.90;99.90;;;;;;5055780;28;20191;-82
2021/06/15 05:25:00;;;;;;;23.58;15.52;;;19.90;99.90;;;;;;5055752;28;20221;-80
2021/06/15 05:27:33;;;;;;;22.08;14.93;;;19.90;99.90;;;;;;5056035;28;20155;-81
2021/06/15 05:30:04;;;;;;;19.00;14.30;;;19.80;99.90;;;;;;5056067;28;20175;-80
2021/06/15 05:32:30;;;;;;;21.40;15.65;;;19.90;99.90;;;;;;5037497;28;20543;-83
2021/06/15 05:34:57;;;;;;;24.08;14.57;;;20.10;99.90;;;;;;5056091;28;20209;-81
2021/06/15 05:37:23;;;;;;;26.25;15.32;;;20.20;99.90;;;;;;5054348;28;20580;-82
2021/06/15 05:39:49;;;;;;;24.75;15.38;;;20.30;99.90;;;;;;5055767;28;20175;-82
2021/06/15 05:42:15;;;;;;;30.83;15.00;;;20.10;99.90;;;;;;5054539;28;20281;-82
2021/06/15 05:44:41;;;;;;;25.20;13.80;;;20.10;99.90;;;;;;5054446;28;20203;-81
2021/06/15 05:47:08;;;;;;;18.10;15.15;;;20.10;99.90;;;;;;5055197;28;20213;-81
2021/06/15 05:49:34;;;;;;;16.08;13.77;;;20.20;99.90;;;;;;5055808;28;20169;-83
2021/06/15 05:52:05;;;;;;;20.42;15.25;;;20.10;99.90;;;;;;5054043;28;20282;-81
2021/06/15 05:54:32;;;;;;;20.60;14.50;;;20.10;99.90;;;;;;5055273;28;20294;-82
2021/06/15 05:56:57;;;;;;;22.10;14.95;;;20.00;99.90;;;;;;5055435;28;20163;-82
2021/06/15 05:59:24;;;;;;;20.42;14.50;;;20.20;99.90;;;;;;5055279;28;20167;-83
2021/06/15 06:01:50;;;;;;;34.42;15.98;;;20.30;99.90;;;;;;5054043;28;20183;-83
2021/06/15 06:04:20;;;;;;;19.80;15.25;;;20.20;99.90;;;;;;5054759;28;20171;-81
2021/06/15 06:09:29;;;;;;;25.73;14.88;;;20.50;99.90;;;;;;5076002;28;20181;-81
2021/06/15 06:11:58;;;;;;;27.38;14.40;;;20.40;99.90;;;;;;5075361;28;20194;-81
2021/06/15 06:14:24;;;;;;;23.27;14.20;;;20.40;99.90;;;;;;5076581;28;20206;-82
2021/06/15 06:16:49;;;;;;;24.90;15.50;;;20.50;99.90;;;;;;5076339;28;20610;-81
2021/06/15 06:19:16;;;;;;;19.10;14.57;;;20.60;99.90;;;;;;5084100;28;20162;-80
2021/06/15 06:21:43;;;;;;;22.58;14.80;;;20.80;99.90;;;;;;5085519;28;20704;-80
2021/06/15 06:24:10;;;;;;;14.73;12.93;;;21.10;99.90;;;;;;5082624;28;20171;-80
2021/06/15 06:26:36;;;;;;;19.70;13.23;;;21.00;99.90;;;;;;5086864;28;20232;-81
2021/06/15 06:29:03;;;;;;;20.85;14.70;;;21.20;99.90;;;;;;5080606;28;20167;-81
2021/06/15 06:31:29;;;;;;;19.70;13.05;;;21.20;99.90;;;;;;5075953;28;20182;-83
2021/06/15 06:33:55;;;;;;;23.02;14.98;;;21.00;99.90;;;;;;5075427;28;20193;-84
2021/06/15 06:36:21;;;;;;;15.70;12.73;;;21.00;99.90;;;;;;5076171;28;20264;-83
2021/06/15 06:38:51;;;;;;;18.42;13.05;;;21.20;99.90;;;;;;5079740;28;20183;-85
2021/06/15 06:41:18;;;;;;;21.58;14.25;;;21.20;99.90;;;;;;5090406;28;20516;-83
2021/06/15 06:43:44;;;;;;;20.45;13.88;;;21.30;99.90;;;;;;5084741;28;20175;-81
2021/06/15 06:46:09;;;;;;;25.02;13.93;;;21.40;99.90;;;;;;5077295;28;20232;-81
2021/06/15 06:48:35;;;;;;;15.65;12.23;;;21.50;99.90;;;;;;5073596;28;20257;-81
2021/06/15 06:51:02;;;;;;;20.17;13.25;;;21.80;99.90;;;;;;5076581;28;20195;-83
2021/06/15 06:53:28;;;;;;;13.40;11.68;;;22.00;99.90;;;;;;5077740;28;20166;-83
2021/06/15 06:55:54;;;;;;;13.15;11.73;;;22.50;99.90;;;;;;5076704;28;20538;-81
2021/06/15 06:58:19;;;;;;;12.23;11.02;;;23.00;99.90;;;;;;5075034;28;20267;-81
2021/06/15 07:00:45;;;;;;;12.10;10.98;;;23.20;99.90;;;;;;5074315;28;20194;-82
2021/06/15 07:03:11;;;;;;;14.27;11.32;;;23.80;99.90;;;;;;5073551;28;20175;-77
2021/06/15 07:05:36;;;;;;;14.73;9.75;;;24.10;99.90;;;;;;5074599;28;20167;-79
2021/06/15 07:08:02;;;;;;;11.18;10.05;;;24.60;99.90;;;;;;5074282;28;20568;-78
2021/06/15 07:10:28;;;;;;;24.02;9.95;;;25.00;99.90;;;;;;5074627;28;20618;-79
2021/06/15 07:12:53;;;;;;;10.80;9.75;;;24.90;99.90;;;;;;5074271;28;20159;-77
2021/06/15 07:15:19;;;;;;;16.85;9.95;;;24.90;99.90;;;;;;5074522;28;20265;-80
2021/06/15 07:17:46;;;;;;;9.77;8.80;;;24.60;99.90;;;;;;5075059;28;20159;-83
2021/06/15 07:20:12;;;;;;;10.23;9.15;;;25.10;99.90;;;;;;5074663;28;20182;-77
2021/06/15 07:22:39;;;;;;;12.75;8.45;;;25.50;99.90;;;;;;5075796;28;20166;-84
2021/06/15 07:25:12;;;;;;;21.05;8.05;;;25.50;99.90;;;;;;5074132;28;20170;-86
2021/06/15 07:27:37;;;;;;;8.10;7.15;;;25.80;99.90;;;;;;5076322;28;20237;-86
2021/06/15 07:30:05;;;;;;;7.43;6.72;;;25.90;99.90;;;;;;5073475;28;20170;-85
2021/06/15 07:32:30;;;;;;;7.40;6.57;;;26.10;99.90;;;;;;5074753;28;20188;-86
2021/06/15 07:34:56;;;;;;;19.52;7.05;;;26.40;99.90;;;;;;5076241;28;20210;-86
2021/06/15 07:37:22;;;;;;;7.03;6.35;;;26.50;99.90;;;;;;5074440;28;20182;-86
2021/06/15 07:39:47;;;;;;;14.00;5.80;;;26.10;99.90;;;;;;5074342;28;20177;-86
2021/06/15 07:42:13;;;;;;;13.45;5.70;;;26.10;99.90;;;;;;5073973;28;20183;-86
2021/06/15 07:44:39;;;;;;;5.88;5.10;;;26.70;99.90;;;;;;5072738;28;20516;-86
2021/06/15 07:47:05;;;;;;;15.85;6.22;;;27.00;99.90;;;;;;5073080;28;20257;-86
2021/06/15 07:49:31;;;;;;;16.45;5.25;;;27.10;99.90;;;;;;5074682;28;20202;-90
2021/06/15 07:51:57;;;;;;;12.93;4.13;;;26.90;99.90;;;;;;5075238;28;20194;-90
2021/06/15 07:54:23;;;;;;;6.03;5.40;;;26.80;99.90;;;;;;5073226;28;20542;-88
2021/06/15 07:56:50;;;;;;;13.38;4.70;;;26.40;99.90;;;;;;5075146;28;20170;-86
2021/06/15 07:59:16;;;;;;;7.57;5.13;;;26.20;99.90;;;;;;5057260;28;20171;-86
2021/06/15 08:01:42;;;;;;;7.10;4.70;;;26.10;99.90;;;;;;5053052;28;20239;-86
2021/06/15 08:04:12;;;;;;;5.40;4.25;;;25.70;99.90;;;;;;5069709;28;20523;-86
2021/06/15 08:06:37;;;;;;;11.32;5.10;;;25.40;99.90;;;;;;5073163;28;20244;-86
2021/06/15 08:09:03;;;;;;;9.52;5.32;;;25.10;99.90;;;;;;5075891;28;20174;-88
2021/06/15 08:11:29;;;;;;;8.88;4.43;;;24.90;99.90;;;;;;5057189;28;20206;-90
2021/06/15 08:13:54;;;;;;;14.13;6.22;;;25.00;99.90;;;;;;5074677;28;20166;-87
2021/06/15 08:16:20;;;;;;;13.90;6.10;;;25.10;99.90;;;;;;5072754;28;20214;-88
2021/06/15 08:18:46;;;;;;;14.18;4.82;;;25.00;99.90;;;;;;5074898;28;20162;-86
2021/06/15 08:21:13;;;;;;;9.65;5.05;;;24.90;99.90;;;;;;5073578;28;20186;-87
2021/06/15 08:23:39;;;;;;;6.07;5.50;;;24.90;99.90;;;;;;5067994;28;20201;-85
2021/06/15 08:26:05;;;;;;;5.55;4.97;;;25.00;99.90;;;;;;5054020;28;20239;-86
2021/06/15 08:28:31;;;;;;;18.48;5.57;;;24.70;99.90;;;;;;5054300;28;20199;-86
2021/06/15 08:30:57;;;;;;;6.43;5.75;;;24.70;99.90;;;;;;5052981;28;20186;-86
2021/06/15 08:33:23;;;;;;;8.35;4.93;;;24.90;99.90;;;;;;5062333;28;20182;-88
2021/06/15 08:35:49;;;;;;;9.27;4.93;;;24.90;99.90;;;;;;5073878;28;20198;-88
2021/06/15 08:38:17;;;;;;;5.18;4.68;;;24.90;99.90;;;;;;5056120;28;20187;-86
2021/06/15 08:40:51;;;;;;;5.65;3.53;;;24.80;99.90;;;;;;5052899;28;20198;-86
2021/06/15 08:43:19;;;;;;;6.75;3.53;;;25.00;99.90;;;;;;5061533;28;20712;-90
2021/06/15 08:45:45;;;;;;;4.43;3.35;;;25.20;99.90;;;;;;5072573;28;20227;-87
2021/06/15 08:48:11;;;;;;;4.28;3.42;;;25.40;99.90;;;;;;5073540;28;20221;-90
2021/06/15 08:50:43;;;;;;;5.93;3.67;;;25.40;99.90;;;;;;5062019;28;20195;-88
2021/06/15 08:53:12;;;;;;;4.43;3.95;;;25.50;99.90;;;;;;5052923;28;20167;-87
2021/06/15 08:55:39;;;;;;;3.95;2.92;;;25.40;99.90;;;;;;5052352;28;20230;-87
2021/06/15 08:58:10;;;;;;;7.03;2.95;;;25.30;99.90;;;;;;5053085;28;20877;-86
2021/06/15 09:00:42;;;;;;;8.70;3.22;;;25.30;99.90;;;;;;5052073;28;20195;-85
2021/06/15 09:03:13;;;;;;;5.00;3.50;;;25.50;99.90;;;;;;5058468;28;20536;-85
2021/06/15 09:05:44;;;;;;;7.35;4.40;;;25.60;99.90;;;;;;5072488;28;20212;-86
2021/06/15 09:08:12;;;;;;;5.18;4.25;;;25.70;99.90;;;;;;5072489;28;20197;-87
2021/06/15 09:10:43;;;;;;;6.75;4.00;;;26.00;99.90;;;;;;5073604;28;20694;-88
2021/06/15 09:13:33;;;;;;;4.18;3.22;;;26.00;99.90;;;;;;5073119;28;20692;-87
2021/06/15 09:16:47;;;;;;;3.45;2.65;;;25.90;99.90;;;;;;5073336;28;20623;-95
2021/06/15 09:19:27;;;;;;;3.60;3.05;;;25.60;99.90;;;;;;5060654;28;20193;-89
2021/06/15 09:22:03;;;;;;;4.57;3.75;;;25.60;99.90;;;;;;5073445;28;20189;-94
2021/06/15 09:24:28;;;;;;;11.00;3.80;;;25.40;99.90;;;;;;5073222;28;20170;-85
2021/06/15 09:27:07;;;;;;;4.43;4.03;;;25.30;99.90;;;;;;5073167;28;20204;-87
2021/06/15 09:29:52;;;;;;;7.88;3.75;;;25.10;99.90;;;;;;5071770;28;20169;-91
2021/06/15 09:32:36;;;;;;;4.10;3.80;;;24.90;99.90;;;;;;5071972;28;20177;-89
2021/06/15 09:35:05;;;;;;;5.80;3.88;;;24.80;99.90;;;;;;5072468;28;20295;-85
2021/06/15 09:37:34;;;;;;;10.15;3.55;;;25.10;99.90;;;;;;5072573;28;20539;-90
2021/06/15 09:40:01;;;;;;;4.43;3.50;;;25.10;99.90;;;;;;5073761;28;20190;-84
2021/06/15 09:42:27;;;;;;;6.22;3.38;;;25.00;99.90;;;;;;5073112;28;20167;-83
2021/06/15 09:44:53;;;;;;;3.28;2.92;;;25.10;99.90;;;;;;5072798;28;20177;-85
2021/06/15 09:47:23;;;;;;;6.05;3.30;;;25.20;99.90;;;;;;5072765;28;20536;-85
2021/06/15 09:49:52;;;;;;;6.53;3.10;;;25.40;99.90;;;;;;5074522;28;20174;-86
2021/06/15 09:52:26;;;;;;;7.57;3.05;;;25.50;99.90;;;;;;5076723;28;20599;-89
2021/06/15 09:54:57;;;;;;;2.17;2.05;;;25.50;99.90;;;;;;5076990;28;20245;-90
2021/06/15 09:57:28;;;;;;;4.40;2.00;;;25.60;99.90;;;;;;5076549;28;20190;-88
2021/06/15 10:00:03;;;;;;;8.15;2.30;;;25.90;99.90;;;;;;5074832;28;20581;-87
2021/06/15 10:02:29;;;;;;;3.72;2.33;;;26.40;99.90;;;;;;5077071;28;20645;-83
2021/06/15 10:04:55;;;;;;;2.85;1.50;;;26.70;99.90;;;;;;5076490;28;20512;-86
2021/06/15 10:07:26;;;;;;;2.63;1.55;;;26.60;99.90;;;;;;5074894;28;20177;-82
2021/06/15 10:09:52;;;;;;;12.27;3.95;;;26.60;99.90;;;;;;5076046;28;20171;-87
2021/06/15 10:12:17;;;;;;;20.17;5.22;;;26.40;99.90;;;;;;5076728;28;20262;-81
2021/06/15 10:14:43;;;;;;;3.13;1.55;;;26.30;99.90;;;;;;5076598;28;20214;-83
2021/06/15 10:17:09;;;;;;;4.30;1.25;;;26.40;99.90;;;;;;5076000;28;20171;-81
2021/06/15 10:19:35;;;;;;;1.95;1.23;;;26.40;99.90;;;;;;5077125;28;20167;-82
2021/06/15 10:22:01;;;;;;;2.05;1.30;;;26.50;99.90;;;;;;5075890;28;20194;-81
2021/06/15 10:24:27;;;;;;;1.70;1.40;;;26.50;99.90;;;;;;5076630;28;20197;-85
2021/06/15 10:26:54;;;;;;;3.55;1.30;;;26.40;99.90;;;;;;5079417;28;20216;-83
2021/06/15 10:29:20;;;;;;;1.33;1.23;;;26.40;99.90;;;;;;5059253;28;20175;-81
2021/06/15 10:31:49;;;;;;;1.42;0.90;;;26.60;99.90;;;;;;5076678;28;20194;-84
2021/06/15 10:34:35;;;;;;;4.03;1.20;;;26.40;99.90;;;;;;5075415;28;20226;-78
2021/06/15 10:37:00;;;;;;;1.05;0.98;;;26.20;99.90;;;;;;5074676;28;20198;-78
2021/06/15 10:39:41;;;;;;;4.32;1.20;;;26.20;99.90;;;;;;5074424;28;20189;-78
2021/06/15 10:42:17;;;;;;;3.13;1.20;;;26.20;99.90;;;;;;5074516;28;20222;-79
2021/06/15 10:44:43;;;;;;;3.03;1.83;;;26.40;99.90;;;;;;5075115;28;20167;-83
2021/06/15 10:47:15;;;;;;;4.40;1.42;;;26.30;99.90;;;;;;5074450;28;20163;-78
2021/06/15 10:49:58;;;;;;;2.60;1.33;;;26.20;99.90;;;;;;5074659;28;20182;-82
2021/06/15 10:52:25;;;;;;;2.63;1.98;;;26.10;99.90;;;;;;5071327;28;20220;-82
2021/06/15 10:54:51;;;;;;;1.50;1.30;;;26.30;99.90;;;;;;5073428;28;20203;-83
2021/06/15 10:57:25;;;;;;;3.65;1.48;;;26.10;99.90;;;;;;5074129;28;20169;-91
2021/06/15 11:00:06;;;;;;;1.27;1.10;;;26.00;99.90;;;;;;5056030;28;20182;-82
2021/06/15 11:02:32;;;;;;;0.90;0.90;;;26.20;99.90;;;;;;5056337;28;20171;-88
2021/06/15 11:05:19;;;;;;;7.82;1.50;;;26.40;99.90;;;;;;5074991;28;20222;-85
2021/06/15 11:07:45;;;;;;;5.38;1.48;;;26.60;99.90;;;;;;5033512;28;20179;-83
2021/06/15 11:10:11;;;;;;;4.38;2.03;;;26.40;99.90;;;;;;5074946;28;20526;-84
2021/06/15 11:12:48;;;;;;;1.67;1.40;;;26.40;99.90;;;;;;5074614;28;20495;-87
2021/06/15 11:15:21;;;;;;;2.10;1.23;;;26.50;99.90;;;;;;5074139;28;20206;-81
2021/06/15 11:17:49;;;;;;;1.33;1.17;;;26.60;99.90;;;;;;5074148;28;20174;-83
2021/06/15 11:20:38;;;;;;;5.78;1.38;;;26.60;99.90;;;;;;5074412;28;20186;-83
2021/06/15 11:23:22;;;;;;;2.70;1.25;;;26.60;99.90;;;;;;5074674;28;20176;-82
2021/06/15 11:25:52;;;;;;;1.38;1.25;;;26.60;99.90;;;;;;5074582;28;20198;-80
2021/06/15 11:28:56;;;;;;;4.10;1.40;;;26.40;99.90;;;;;;5074835;28;20159;-83
2021/06/15 11:31:22;;;;;;;6.13;1.73;;;26.60;99.90;;;;;;5074357;28;20296;-89
2021/06/15 11:34:16;;;;;;;6.75;1.40;;;26.60;99.90;;;;;;5074883;28;20535;-84
2021/06/15 11:36:54;;;;;;;1.67;1.35;;;26.70;99.90;;;;;;5080485;28;20178;-79
2021/06/15 11:39:23;;;;;;;3.47;1.33;;;27.00;99.90;;;;;;5087687;28;20185;-79
2021/06/15 11:42:07;;;;;;;2.15;1.48;;;26.80;99.90;;;;;;5094316;28;20189;-83
2021/06/15 11:45:07;;;;;;;8.80;1.67;;;26.70;99.90;;;;;;5090450;28;20179;-91
2021/06/15 11:47:46;;;;;;;1.58;1.48;;;26.50;99.90;;;;;;5075106;28;20182;-84
2021/06/15 11:50:23;;;;;;;2.63;1.45;;;26.50;99.90;;;;;;5074515;28;20190;-90
2021/06/15 11:53:06;;;;;;;2.97;1.40;;;26.60;99.90;;;;;;5066268;28;20654;-87
2021/06/15 11:55:40;;;;;;;4.63;1.38;;;26.70;99.90;;;;;;5073764;28;20201;-83
2021/06/15 11:58:13;;;;;;;4.72;1.40;;;26.40;99.90;;;;;;5072137;28;20182;-81
2021/06/15 12:00:45;;;;;;;2.58;1.60;;;26.10;99.90;;;;;;5054647;28;20182;-84
2021/06/15 12:03:32;;;;;;;4.80;1.13;;;26.30;99.90;;;;;;5055215;28;20179;-89
2021/06/15 12:05:59;;;;;;;1.42;1.33;;;26.20;99.90;;;;;;5055610;28;20171;-87
2021/06/15 12:08:29;;;;;;;6.35;1.55;;;26.40;99.90;;;;;;5054227;28;20159;-85
2021/06/15 12:10:54;;;;;;;7.90;1.70;;;26.50;99.90;;;;;;5055516;28;20206;-83
2021/06/15 12:13:26;;;;;;;4.50;1.67;;;26.50;99.90;;;;;;5054358;28;20171;-87
2021/06/15 12:16:02;;;;;;;6.53;1.50;;;26.40;99.90;;;;;;5055073;28;20219;-91
2021/06/15 12:18:29;;;;;;;1.85;1.75;;;26.30;99.90;;;;;;5053406;28;20238;-86
2021/06/15 12:21:05;;;;;;;2.20;1.80;;;26.40;99.90;;;;;;5053356;28;20191;-86
2021/06/15 12:23:49;;;;;;;3.33;1.50;;;26.50;99.90;;;;;;5053433;28;20183;-88
2021/06/15 12:26:15;;;;;;;12.73;1.65;;;26.60;99.90;;;;;;5054814;28;20171;-85
2021/06/15 12:29:02;;;;;;;2.38;1.75;;;26.70;99.90;;;;;;5054803;28;20214;-85
2021/06/15 12:31:34;;;;;;;9.18;1.70;;;26.70;99.90;;;;;;5051328;28;20218;-86
2021/06/15 12:34:03;;;;;;;5.32;1.77;;;26.60;99.90;;;;;;5053009;28;20159;-80
2021/06/15 12:36:40;;;;;;;3.10;1.30;;;26.70;99.90;;;;;;5050689;28;20181;-78
2021/06/15 12:39:14;;;;;;;1.45;1.20;;;26.80;99.90;;;;;;5051564;28;20186;-78
2021/06/15 12:41:46;;;;;;;3.53;1.73;;;27.00;99.90;;;;;;5051362;28;20187;-78
2021/06/15 12:44:12;;;;;;;9.07;1.42;;;27.10;99.90;;;;;;5050677;28;20186;-78
2021/06/15 12:46:39;;;;;;;3.20;1.70;;;26.90;99.90;;;;;;5051145;28;20212;-76
2021/06/15 12:49:15;;;;;;;5.13;1.95;;;26.90;99.90;;;;;;5051614;28;20608;-76
2021/06/15 12:51:50;;;;;;;2.72;1.83;;;26.80;99.90;;;;;;5052237;28;20179;-78
2021/06/15 12:54:42;;;;;;;3.60;1.48;;;26.90;99.90;;;;;;5051492;28;20241;-77